Waukesha, WI (53189)

7:38 PM CST on January 26, 2015 (GMT -0600)
Woodfield Park | Change Station
CLOSE
Current Station
Personal Weather Station
Location: Waukesha, WI
Elevation: 883 ft
Nearby Weather Stations

Elev 883 ft 43.01 °N, 88.26 °W | Updated 10 seconds ago

Light Snow
Light Snow
25.3 °F
Feels Like 25 °F
N
0.0
Wind Variable Wind from NE
Gusts 0.0 mph

Today
High -- | Low -- °F
--% Chance of Precip.
Yesterday
High -- | Low -- °F
Precip. -- in
7:14 AM 4:57 PM
Waxing Crescent, 48% visible
Pressure 29.88 in
Visibility 1.5 miles
Clouds Overcast 900 ft
Windchill 25 °F
Dew Point 20 °F
Humidity 81%
Rainfall 0.00 in
Snow Depth Not available.
UV 0.0 out of 12
Pollen .10 out of 12
Air Quality Not available.
Flu Activity Not available.
METAR KUES 270045Z 12006KT 1 1/2SM -SN OVC009 M05/M06 A2988

More Conditions Fewer Conditions

Pressure 29.88 in
Visibility 1.5 miles
Clouds Overcast 900 ft
Windchill 25 °F
Dew Point 20 °F
Humidity 81%
Rainfall 0.00 in
Snow Depth Not available.
UV 0.0 out of 12
Pollen .10 out of 12
Air Quality Not available.
Flu Activity Not available.
METAR KUES 270045Z 12006KT 1 1/2SM -SN OVC009 M05/M06 A2988

More Conditions Fewer Conditions

Nowcast | as of 7:31 PM CST on January 26, 2015

Look for pockets of a mix of light freezing drizzle and light snow to cross south central Wisconsin through the late evening hours. The leading edge of the light wintry mix...extending from near Westfield in western Marquette County to Cross Plains in west central Dane County...is moving southeast around 15 mph. This leading edge will reach a Princeton...Madison to Brodhead line around 9 PM...and Ripon...Columbus...Stoughton to Footville in central Rock County around 10 PM. Additional snow accumulations will be a few tenths of an inch or less. Surface temperatures will remain below freezing...so scattered slippery spots and stretches are likely on untreated roads and elevated surfaces such as bridges through the evening.

×

10-Day Weather Forecast

Almanac

Astronomy

Jan. 26, 2015 Rise Set
Actual Time
Civil Twilight
Nautical Twilight
Astronomical Twilight
Moon
Length of Visible Light
Length of Day
Tomorrow will be .
, % of the Moon is Illuminated

Today's Extremes

State Highs State Lows

Community

WunderPhotos

Upload Photos

1,790,446 photos uploaded!

WunderBlogs® & News

Nearby

Air Quality

  Air Quality AQ Index Pollutant
Not available.

Snow Depth

Station Depth Elevation

Earthquake Activity

City Distance Mag. Time & Date
Minimum magnitude displayed is 2.5.

Coastal Water Temperatures

Place Temperature

Nearby Weather Stations